createdAt,value
2023-05-03T00:01:48.838Z,102201.31
2023-05-03T00:04:19.259Z,102199.56
2023-05-03T00:06:50.262Z,102204.47
2023-05-03T00:09:23.249Z,102192.50
2023-05-03T00:11:53.641Z,102206.09
2023-05-03T00:14:23.808Z,102203.81
2023-05-03T00:17:02.473Z,102210.19
2023-05-03T00:19:37.788Z,102212.50
2023-05-03T00:22:07.938Z,102205.06
2023-05-03T00:24:40.686Z,102203.44
2023-05-03T00:27:12.872Z,102214.16
2023-05-03T00:29:43.716Z,102203.53
2023-05-03T00:32:13.924Z,102185.13
2023-05-03T00:34:44.652Z,102197.00
2023-05-03T00:37:15.070Z,102165.22
2023-05-03T00:39:48.047Z,102199.38
2023-05-03T00:42:19.805Z,102209.09
2023-05-03T00:44:49.925Z,102193.28
2023-05-03T00:47:21.015Z,102204.50
2023-05-03T00:49:51.799Z,102208.81
2023-05-03T00:52:22.095Z,102202.72
2023-05-03T00:54:55.361Z,102204.78
2023-05-03T00:57:33.406Z,102206.69
2023-05-03T01:00:04.144Z,102201.53
2023-05-03T01:02:35.012Z,102183.97
2023-05-03T01:05:07.524Z,102200.91
2023-05-03T01:07:46.708Z,102202.91
2023-05-03T01:10:28.526Z,102203.81
2023-05-03T01:13:08.904Z,102205.91
2023-05-03T01:15:51.290Z,102205.28
2023-05-03T01:18:27.139Z,102210.97
2023-05-03T01:20:59.460Z,102213.03
2023-05-03T01:23:39.584Z,102209.22
2023-05-03T01:26:26.541Z,102217.00
2023-05-03T01:29:00.453Z,102210.47
2023-05-03T01:31:48.443Z,102214.78
2023-05-03T01:34:28.729Z,102212.28
2023-05-03T01:37:03.473Z,102212.50
2023-05-03T01:39:40.245Z,102224.09
2023-05-03T01:42:13.219Z,102199.78
2023-05-03T01:44:44.970Z,102188.69
2023-05-03T01:47:16.061Z,102213.41
2023-05-03T01:49:46.267Z,102218.91
2023-05-03T01:52:19.036Z,102219.16
2023-05-03T01:54:49.309Z,102214.91
2023-05-03T01:57:23.600Z,102220.81
2023-05-03T01:59:53.429Z,102224.28
2023-05-03T02:02:26.354Z,102211.59
2023-05-03T02:04:56.515Z,102227.03
2023-05-03T02:07:26.883Z,102220.91
2023-05-03T02:09:56.948Z,102227.69
2023-05-03T02:12:30.398Z,102231.09
2023-05-03T02:15:03.856Z,102232.47
2023-05-03T02:17:35.122Z,102233.59
2023-05-03T02:20:05.964Z,102239.97
2023-05-03T02:22:37.802Z,102238.66
2023-05-03T02:25:09.527Z,102249.97
2023-05-03T02:27:45.436Z,102210.63
2023-05-03T02:30:16.362Z,102247.25
2023-05-03T02:32:47.341Z,102246.34
2023-05-03T02:35:18.837Z,102252.72
2023-05-03T02:37:48.958Z,102246.19
2023-05-03T02:40:20.004Z,102249.59
2023-05-03T02:42:54.486Z,102244.66
2023-05-03T02:45:31.780Z,102248.97
2023-05-03T02:48:01.973Z,102250.31
2023-05-03T02:50:32.797Z,102244.03
2023-05-03T02:53:04.668Z,102251.94
2023-05-03T02:55:34.988Z,102257.84
2023-05-03T02:58:10.223Z,102256.94
2023-05-03T03:00:40.129Z,102260.59
2023-05-03T03:03:12.001Z,102258.56
2023-05-03T03:05:42.697Z,102246.16
2023-05-03T03:08:16.822Z,102230.59
2023-05-03T03:10:47.596Z,102266.31
2023-05-03T03:13:20.482Z,102263.13
2023-05-03T03:15:51.273Z,102254.28
2023-05-03T03:18:21.668Z,102252.72
2023-05-03T03:20:51.795Z,102259.97
2023-05-03T03:23:26.360Z,102248.91
2023-05-03T03:25:56.460Z,102257.97
2023-05-03T03:28:39.328Z,102256.19
2023-05-03T03:31:15.173Z,102255.50
2023-05-03T03:33:50.703Z,102256.00
2023-05-03T03:36:23.924Z,102258.75
2023-05-03T03:38:54.218Z,102258.09
2023-05-03T03:41:24.963Z,102252.63
2023-05-03T03:44:01.430Z,102248.56
2023-05-03T03:46:31.459Z,102239.97
2023-05-03T03:49:02.587Z,102251.28
2023-05-03T03:51:38.929Z,102253.50
2023-05-03T03:54:09.354Z,102254.44
2023-05-03T03:56:44.421Z,102248.06
2023-05-03T03:59:17.215Z,102253.69
2023-05-03T04:01:48.456Z,102242.22
2023-05-03T04:04:19.381Z,102252.34
2023-05-03T04:06:50.567Z,102257.34
2023-05-03T04:09:21.722Z,102246.69
2023-05-03T04:11:52.034Z,102255.75
2023-05-03T04:14:25.515Z,102244.41
2023-05-03T04:17:04.741Z,102242.38
2023-05-03T04:19:38.925Z,102242.34
2023-05-03T04:22:10.244Z,102248.41
2023-05-03T04:24:40.858Z,102247.44
2023-05-03T04:27:17.850Z,102246.28
2023-05-03T04:29:50.999Z,102253.50
2023-05-03T04:32:23.375Z,102253.94
2023-05-03T04:34:55.492Z,102255.03
2023-05-03T04:37:31.120Z,102259.78
2023-05-03T04:40:01.837Z,102256.53
2023-05-03T04:42:39.102Z,102254.50
2023-05-03T04:45:14.744Z,102259.00
2023-05-03T04:47:45.323Z,102260.75
2023-05-03T04:50:15.607Z,102267.78
2023-05-03T04:52:48.164Z,102265.03
2023-05-03T04:55:18.732Z,102272.88
2023-05-03T04:57:49.487Z,102267.78
2023-05-03T05:00:23.754Z,102270.50
2023-05-03T05:03:01.412Z,102272.94
2023-05-03T05:05:34.153Z,102274.72
2023-05-03T05:08:04.675Z,102270.44
2023-05-03T05:10:43.602Z,102275.72
2023-05-03T05:13:20.402Z,102267.00
2023-05-03T05:15:53.032Z,102267.13
2023-05-03T05:18:23.173Z,102263.84
2023-05-03T05:20:53.864Z,102244.06
2023-05-03T05:23:24.893Z,102252.22
2023-05-03T05:26:02.650Z,102263.66
2023-05-03T05:28:37.392Z,102256.59
2023-05-03T05:31:18.141Z,102260.09
2023-05-03T05:33:51.257Z,102258.53
2023-05-03T05:36:24.752Z,102267.09
2023-05-03T05:38:55.526Z,102268.91
2023-05-03T05:41:27.007Z,102267.84
2023-05-03T05:43:58.904Z,102257.81
2023-05-03T05:46:44.619Z,102278.16
2023-05-03T05:49:16.725Z,102278.75
2023-05-03T05:51:46.834Z,102272.78
2023-05-03T05:54:18.050Z,102282.03
2023-05-03T05:56:50.989Z,102282.84
2023-05-03T05:59:21.756Z,102278.03
2023-05-03T06:01:54.508Z,102281.72
2023-05-03T06:04:24.918Z,102281.69
2023-05-03T06:06:55.228Z,102281.88
2023-05-03T06:09:35.288Z,102281.97
2023-05-03T06:12:07.723Z,102288.53
2023-05-03T06:14:55.352Z,102301.75
2023-05-03T06:17:36.941Z,102279.22
2023-05-03T06:20:11.996Z,102294.50
2023-05-03T06:22:43.624Z,102315.81
2023-05-03T06:25:17.782Z,102315.56
2023-05-03T06:27:52.153Z,102319.31
2023-05-03T06:30:25.969Z,102316.69
2023-05-03T06:32:59.253Z,102287.97
2023-05-03T06:35:29.834Z,102321.50
2023-05-03T06:38:02.026Z,102283.44
2023-05-03T06:40:32.129Z,102320.66
2023-05-03T06:43:05.383Z,102325.34
2023-05-03T06:45:38.854Z,102322.97
2023-05-03T06:48:13.974Z,102327.50
2023-05-03T06:50:45.360Z,102317.53
2023-05-03T06:53:24.356Z,102323.41
2023-05-03T06:55:57.010Z,102326.66
2023-05-03T06:58:29.432Z,102321.63
2023-05-03T07:00:59.553Z,102317.72
2023-05-03T07:03:32.778Z,102316.69
2023-05-03T07:06:03.239Z,102321.31
2023-05-03T07:08:33.560Z,102289.81
2023-05-03T07:11:04.359Z,102324.56
2023-05-03T07:13:34.379Z,102321.56
2023-05-03T07:16:04.827Z,102318.59
2023-05-03T07:18:37.598Z,102319.97
2023-05-03T07:21:09.475Z,102312.91
2023-05-03T07:23:39.784Z,102316.34
2023-05-03T07:26:11.506Z,102313.84
2023-05-03T07:28:43.521Z,102309.63
2023-05-03T07:31:16.488Z,102309.06
2023-05-03T07:33:49.307Z,102323.56
2023-05-03T07:36:19.529Z,102314.53
2023-05-03T07:38:49.757Z,102298.16
2023-05-03T07:41:19.863Z,102300.66
2023-05-03T07:43:50.430Z,102305.81
2023-05-03T07:46:23.373Z,102309.81
2023-05-03T07:48:56.117Z,102310.34
2023-05-03T07:51:26.990Z,102310.97
2023-05-03T07:54:01.096Z,102308.31
2023-05-03T07:56:34.417Z,102303.84
2023-05-03T07:59:10.114Z,102307.78
2023-05-03T08:01:40.675Z,102298.94
2023-05-03T08:04:13.918Z,102295.16
2023-05-03T08:06:45.100Z,102290.16
2023-05-03T08:09:16.320Z,102290.88
2023-05-03T08:11:46.474Z,102299.88
2023-05-03T08:14:16.891Z,102302.03
2023-05-03T08:16:49.219Z,102288.53
2023-05-03T08:19:37.403Z,102305.63
2023-05-03T08:22:07.923Z,102305.94
2023-05-03T08:24:38.043Z,102302.50
2023-05-03T08:27:09.815Z,102304.25
2023-05-03T08:29:40.021Z,102286.59
2023-05-03T08:32:17.036Z,102291.13
2023-05-03T08:34:49.621Z,102311.50
2023-05-03T08:37:20.215Z,102307.88
2023-05-03T08:39:50.317Z,102308.22
2023-05-03T08:42:25.892Z,102310.41
2023-05-03T08:44:57.592Z,102306.31
2023-05-03T08:47:32.118Z,102312.41
2023-05-03T08:50:10.107Z,102306.84
2023-05-03T08:52:40.372Z,102304.78
2023-05-03T08:55:14.105Z,102308.78
2023-05-03T08:57:44.221Z,102305.75
2023-05-03T09:00:16.184Z,102268.88
2023-05-03T09:02:46.278Z,102297.16
2023-05-03T09:05:44.475Z,102299.88
2023-05-03T09:08:17.319Z,102291.22
2023-05-03T09:10:47.644Z,102292.28
2023-05-03T09:13:17.723Z,102296.78
2023-05-03T09:15:57.307Z,102289.22
2023-05-03T09:18:31.091Z,102269.59
2023-05-03T09:21:03.625Z,102274.81
2023-05-03T09:23:34.084Z,102277.19
2023-05-03T09:26:07.837Z,102282.91
2023-05-03T09:28:44.583Z,102284.69
2023-05-03T09:31:14.631Z,102293.03
2023-05-03T09:33:44.583Z,102278.09
2023-05-03T09:36:17.815Z,102259.19
2023-05-03T09:38:48.156Z,102293.38
2023-05-03T09:41:29.537Z,102297.34
2023-05-03T09:44:03.196Z,102289.78
2023-05-03T09:46:33.590Z,102295.38
2023-05-03T09:49:04.939Z,102292.78
2023-05-03T09:51:38.158Z,102287.47
2023-05-03T09:54:10.244Z,102283.00
2023-05-03T09:56:40.853Z,102286.81
2023-05-03T09:59:13.183Z,102273.50
2023-05-03T10:01:43.671Z,102276.41
2023-05-03T10:04:14.788Z,102273.22
2023-05-03T10:06:52.977Z,102268.84
2023-05-03T10:09:29.963Z,102274.59
2023-05-03T10:12:03.257Z,102275.34
2023-05-03T10:14:34.013Z,102279.66
2023-05-03T10:17:07.900Z,102272.56
2023-05-03T10:19:50.896Z,102273.97
2023-05-03T10:22:23.905Z,102272.38
2023-05-03T10:25:16.090Z,102262.19
2023-05-03T10:27:57.024Z,102265.72
2023-05-03T10:30:32.795Z,102259.81
2023-05-03T10:33:03.369Z,102254.13
2023-05-03T10:35:34.273Z,102253.91
2023-05-03T10:38:17.368Z,102246.78
2023-05-03T10:40:47.673Z,102260.06
2023-05-03T10:43:46.330Z,102253.53
2023-05-03T10:46:36.119Z,102254.91
2023-05-03T10:49:34.256Z,102248.41
2023-05-03T10:52:04.327Z,102250.03
2023-05-03T10:54:36.992Z,102250.19
2023-05-03T10:57:08.056Z,102248.75
2023-05-03T10:59:53.249Z,102246.97
2023-05-03T11:02:29.752Z,102243.59
2023-05-03T11:05:05.975Z,102250.91
2023-05-03T11:07:37.708Z,102237.63
2023-05-03T11:10:22.454Z,102231.59
2023-05-03T11:12:52.986Z,102225.53
2023-05-03T11:15:23.115Z,102225.97
2023-05-03T11:17:53.337Z,102225.81
2023-05-03T11:20:24.399Z,102208.84
2023-05-03T11:22:55.215Z,102222.13
2023-05-03T11:25:28.263Z,102218.66
2023-05-03T11:28:01.938Z,102218.78
2023-05-03T11:30:33.171Z,102211.03
2023-05-03T11:33:03.759Z,102203.22
2023-05-03T11:35:34.447Z,102208.53
2023-05-03T11:38:05.043Z,102192.19
2023-05-03T11:40:42.492Z,102196.94
2023-05-03T11:43:13.440Z,102191.81
2023-05-03T11:45:47.158Z,102199.00
2023-05-03T11:48:18.379Z,102194.34
2023-05-03T11:50:51.746Z,102195.19
2023-05-03T11:53:22.429Z,102199.81
2023-05-03T11:55:56.425Z,102184.38
2023-05-03T11:58:28.130Z,102195.13
2023-05-03T12:01:00.033Z,102189.88
2023-05-03T12:03:33.377Z,102196.56
2023-05-03T12:06:05.096Z,102187.84
2023-05-03T12:08:38.230Z,102188.41
2023-05-03T12:11:17.801Z,102183.59
2023-05-03T12:13:51.016Z,102176.28
2023-05-03T12:16:23.174Z,102179.41
2023-05-03T12:18:56.695Z,102171.88
2023-05-03T12:21:31.639Z,102168.81
2023-05-03T12:24:06.046Z,102160.00
2023-05-03T12:26:40.202Z,102159.47
2023-05-03T12:29:12.983Z,102146.47
2023-05-03T12:31:44.143Z,102145.41
2023-05-03T12:34:32.768Z,102141.38
2023-05-03T12:37:07.569Z,102136.03
2023-05-03T12:39:56.312Z,102136.19
2023-05-03T12:42:43.273Z,102139.47
2023-05-03T12:45:15.406Z,102133.84
2023-05-03T12:47:49.862Z,102136.22
2023-05-03T12:50:24.390Z,102127.81
2023-05-03T12:52:55.101Z,102129.63
2023-05-03T12:55:26.883Z,102127.56
2023-05-03T12:58:32.309Z,102129.38
2023-05-03T13:01:37.155Z,102135.22
2023-05-03T13:03:44.301Z,102129.84
2023-05-03T13:06:17.253Z,102124.41
2023-05-03T13:08:50.101Z,102119.97
2023-05-03T13:11:21.736Z,102123.63
2023-05-03T13:13:55.166Z,102117.72
2023-05-03T13:16:26.150Z,102106.03
2023-05-03T13:18:56.829Z,102078.13
2023-05-03T13:21:30.753Z,102100.50
2023-05-03T13:24:01.385Z,102100.03
2023-05-03T13:26:32.268Z,102100.31
2023-05-03T13:29:05.494Z,102095.28
2023-05-03T13:31:38.068Z,102095.91
2023-05-03T13:34:08.232Z,102078.97
2023-05-03T13:36:38.376Z,102099.03
2023-05-03T13:39:12.131Z,102088.13
2023-05-03T13:41:49.826Z,102087.84
2023-05-03T13:44:25.406Z,102074.69
2023-05-03T13:46:56.492Z,102077.38
2023-05-03T13:49:26.653Z,102079.16
2023-05-03T13:51:57.688Z,102078.13
2023-05-03T13:54:29.520Z,102074.66
2023-05-03T13:57:01.520Z,102066.31
2023-05-03T13:59:34.282Z,102066.13
2023-05-03T14:02:04.589Z,102068.09
2023-05-03T14:04:34.927Z,102071.66
2023-05-03T14:07:05.090Z,102069.28
2023-05-03T14:09:39.602Z,102055.09
2023-05-03T14:12:10.461Z,102064.13
2023-05-03T14:14:46.181Z,102051.41
2023-05-03T14:17:16.360Z,102055.31
2023-05-03T14:19:47.479Z,102047.06
2023-05-03T14:22:26.379Z,102054.22
2023-05-03T14:24:56.990Z,102048.81
2023-05-03T14:27:28.190Z,102050.91
2023-05-03T14:30:01.068Z,102049.34
2023-05-03T14:32:31.328Z,102039.69
2023-05-03T14:35:02.182Z,102032.47
2023-05-03T14:37:33.633Z,102042.56
2023-05-03T14:40:05.878Z,102028.50
2023-05-03T14:42:37.313Z,102022.78
2023-05-03T14:45:16.297Z,102027.66
2023-05-03T14:47:46.575Z,102017.50
2023-05-03T14:50:17.137Z,102018.19
2023-05-03T14:52:47.571Z,102016.03
2023-05-03T14:55:21.532Z,102014.34
2023-05-03T14:57:53.468Z,102006.25
2023-05-03T15:00:28.038Z,102007.47
2023-05-03T15:02:58.453Z,102010.56
2023-05-03T15:05:28.446Z,102005.91
2023-05-03T15:07:59.099Z,102004.06
2023-05-03T15:10:29.187Z,102003.03
2023-05-03T15:12:59.247Z,102003.47
2023-05-03T15:15:37.469Z,101997.09
2023-05-03T15:18:08.292Z,102003.97
2023-05-03T15:20:38.956Z,102002.78
2023-05-03T15:23:09.491Z,101986.72
2023-05-03T15:28:27.654Z,102000.28
2023-05-03T15:31:00.516Z,101995.50
2023-05-03T15:33:31.447Z,101991.34
2023-05-03T15:36:10.754Z,101987.41
2023-05-03T15:38:41.587Z,101988.69
2023-05-03T15:41:11.733Z,101984.84
2023-05-03T15:43:44.164Z,101979.28
2023-05-03T15:46:16.726Z,101983.00
2023-05-03T15:48:46.997Z,101979.75
2023-05-03T15:51:16.956Z,101982.47
2023-05-03T15:53:47.380Z,101972.38
2023-05-03T15:56:17.514Z,101978.88
2023-05-03T15:58:48.391Z,101977.09
2023-05-03T16:01:23.690Z,101974.88
2023-05-03T16:03:57.649Z,101973.72
2023-05-03T16:06:30.163Z,101965.38
2023-05-03T16:09:00.143Z,101968.34
2023-05-03T16:11:30.269Z,101972.25
2023-05-03T16:14:00.379Z,101963.31
2023-05-03T16:16:33.800Z,101968.41
2023-05-03T16:19:04.427Z,101943.19
2023-05-03T16:21:34.748Z,101957.50
2023-05-03T16:24:05.416Z,101964.66
2023-05-03T16:26:35.531Z,101958.69
2023-05-03T16:29:05.905Z,101960.03
2023-05-03T16:31:38.646Z,101934.69
2023-05-03T16:34:08.936Z,101968.84
2023-05-03T16:36:42.943Z,101965.13
2023-05-03T16:39:13.268Z,101968.84
2023-05-03T16:41:43.804Z,101964.84
2023-05-03T16:44:14.386Z,101967.78
2023-05-03T16:46:48.349Z,101951.72
2023-05-03T16:49:19.571Z,101958.88
2023-05-03T16:51:49.660Z,101958.72
2023-05-03T16:54:19.813Z,101963.66
2023-05-03T16:56:49.914Z,101961.09
2023-05-03T16:59:20.245Z,101933.22
2023-05-03T17:01:53.072Z,101959.31
2023-05-03T17:04:25.355Z,101956.03
2023-05-03T17:06:56.318Z,101957.81
2023-05-03T17:09:26.534Z,101961.50
2023-05-03T17:11:59.833Z,101959.72
2023-05-03T17:14:30.565Z,101960.91
2023-05-03T17:17:05.062Z,101954.78
2023-05-03T17:19:35.572Z,101949.25
2023-05-03T17:22:05.831Z,101943.59
2023-05-03T17:24:36.318Z,101945.84
2023-05-03T17:27:07.390Z,101956.69
2023-05-03T17:29:38.489Z,101944.47
2023-05-03T17:32:11.216Z,101947.44
2023-05-03T17:34:41.546Z,101957.13
2023-05-03T17:37:11.754Z,101955.78
2023-05-03T17:39:42.263Z,101952.03
2023-05-03T17:42:12.570Z,101956.75
2023-05-03T17:44:43.157Z,101952.28
2023-05-03T17:47:16.889Z,101954.50
2023-05-03T17:49:50.446Z,101945.81
2023-05-03T17:52:20.636Z,101932.09
2023-05-03T17:54:52.171Z,101942.50
2023-05-03T17:57:23.074Z,101950.56
2023-05-03T17:59:53.496Z,101941.72
2023-05-03T18:02:26.393Z,101941.28
2023-05-03T18:04:58.231Z,101944.25
2023-05-03T18:07:29.878Z,101947.19
2023-05-03T18:10:00.226Z,101951.97
2023-05-03T18:12:30.414Z,101939.25
2023-05-03T18:15:02.222Z,101941.63
2023-05-03T18:17:36.395Z,101946.19
2023-05-03T18:20:07.651Z,101941.41
2023-05-03T18:22:37.796Z,101940.22
2023-05-03T18:25:08.928Z,101945.84
2023-05-03T18:27:39.429Z,101952.97
2023-05-03T18:30:10.760Z,101938.47
2023-05-03T18:32:44.104Z,101948.91
2023-05-03T18:35:15.223Z,101950.78
2023-05-03T18:37:45.589Z,101939.56
2023-05-03T18:40:17.520Z,101952.50
2023-05-03T18:42:47.962Z,101960.69
2023-05-03T18:45:19.779Z,101954.59
2023-05-03T18:47:53.152Z,101960.19
2023-05-03T18:50:31.701Z,101953.94
2023-05-03T18:53:04.130Z,101959.25
2023-05-03T18:55:36.883Z,101956.78
2023-05-03T18:58:07.010Z,101966.03
2023-05-03T19:00:37.043Z,101954.47
2023-05-03T19:03:13.842Z,101963.38
2023-05-03T19:05:44.018Z,101967.38
2023-05-03T19:08:14.731Z,101959.72
2023-05-03T19:10:44.973Z,101970.00
2023-05-03T19:13:16.854Z,101964.28
2023-05-03T19:15:47.183Z,101962.91
2023-05-03T19:18:24.612Z,101969.56
2023-05-03T19:20:55.386Z,101964.78
2023-05-03T19:23:25.627Z,101969.16
2023-05-03T19:25:58.425Z,101960.75
2023-05-03T19:28:28.610Z,101969.81
2023-05-03T19:30:58.738Z,101960.09
2023-05-03T19:33:32.130Z,101969.13
2023-05-03T19:36:06.893Z,101967.38
2023-05-03T19:38:37.591Z,101954.63
2023-05-03T19:41:12.223Z,101961.31
2023-05-03T19:43:42.756Z,101966.78
2023-05-03T19:46:12.940Z,101949.38
2023-05-03T19:48:46.141Z,101968.78
2023-05-03T19:51:16.860Z,101970.09
2023-05-03T19:53:48.909Z,101977.66
2023-05-03T19:56:21.765Z,101974.47
2023-05-03T19:58:52.511Z,101974.84
2023-05-03T20:01:23.488Z,101969.13
2023-05-03T20:03:56.787Z,101978.91
2023-05-03T20:06:27.226Z,101965.78
2023-05-03T20:08:59.810Z,101958.28
2023-05-03T20:11:30.326Z,101969.03
2023-05-03T20:14:00.349Z,101939.47
2023-05-03T20:16:33.672Z,101960.63
2023-05-03T20:19:07.094Z,101957.38
2023-05-03T20:21:37.479Z,101950.22
2023-05-03T20:24:11.051Z,101961.03
2023-05-03T20:26:41.375Z,101959.78
2023-05-03T20:29:11.487Z,101952.78
2023-05-03T20:31:41.911Z,101952.69
2023-05-03T20:34:14.745Z,101956.13
2023-05-03T20:36:44.793Z,101952.00
2023-05-03T20:39:14.938Z,101958.50
2023-05-03T20:41:44.967Z,101962.28
2023-05-03T20:44:15.115Z,101961.91
2023-05-03T20:46:45.877Z,101970.44
2023-05-03T20:49:25.692Z,101967.22
2023-05-03T20:51:56.751Z,101970.66
2023-05-03T20:54:26.817Z,101969.22
2023-05-03T20:56:57.552Z,101977.91
2023-05-03T20:59:27.897Z,101972.19
2023-05-03T21:01:58.180Z,101973.81
2023-05-03T21:04:32.929Z,101973.84
2023-05-03T21:07:03.833Z,101968.47
2023-05-03T21:09:34.047Z,101962.78
2023-05-03T21:12:04.576Z,101965.84
2023-05-03T21:14:40.066Z,101966.94
2023-05-03T21:17:12.596Z,101972.19
2023-05-03T21:19:46.086Z,101965.88
2023-05-03T21:22:16.464Z,101969.16
2023-05-03T21:24:46.905Z,101963.06
2023-05-03T21:27:17.064Z,101974.41
2023-05-03T21:29:49.696Z,101971.56
2023-05-03T21:32:27.230Z,101977.88
2023-05-03T21:35:02.528Z,101967.28
2023-05-03T21:37:33.496Z,101964.59
2023-05-03T21:40:04.676Z,101973.94
2023-05-03T21:42:34.855Z,101970.91
2023-05-03T21:45:12.121Z,101962.81
2023-05-03T21:47:46.961Z,101964.25
2023-05-03T21:50:19.771Z,101960.13
2023-05-03T21:52:49.784Z,101963.91
2023-05-03T21:55:19.755Z,101958.88
2023-05-03T21:57:51.613Z,101963.91
2023-05-03T22:00:22.581Z,101952.41
2023-05-03T22:02:52.780Z,101954.03
2023-05-03T22:05:29.398Z,101957.25
2023-05-03T22:07:59.311Z,101950.22
2023-05-03T22:10:29.497Z,101942.50
2023-05-03T22:13:00.120Z,101941.41
2023-05-03T22:15:33.740Z,101946.13
2023-05-03T22:18:03.930Z,101932.25
2023-05-03T22:20:36.913Z,101934.03
2023-05-03T22:23:10.208Z,101933.69
2023-05-03T22:25:40.431Z,101929.75
2023-05-03T22:28:18.249Z,101926.34
2023-05-03T22:30:48.347Z,101934.41
2023-05-03T22:33:21.038Z,101941.25
2023-05-03T22:35:53.703Z,101935.88
2023-05-03T22:38:23.925Z,101910.53
2023-05-03T22:40:54.006Z,101936.03
2023-05-03T22:43:24.170Z,101946.25
2023-05-03T22:45:56.341Z,101935.22
2023-05-03T22:48:29.956Z,101933.03
2023-05-03T22:51:02.932Z,101935.16
2023-05-03T22:53:35.489Z,101936.78
2023-05-03T22:56:07.178Z,101928.03
2023-05-03T22:58:39.009Z,101931.78
2023-05-03T23:01:12.746Z,101935.06
2023-05-03T23:03:43.814Z,101931.81
2023-05-03T23:06:17.119Z,101934.50
2023-05-03T23:08:47.212Z,101925.88
2023-05-03T23:11:25.215Z,101928.72
2023-05-03T23:13:57.964Z,101931.97
2023-05-03T23:16:28.565Z,101912.38
2023-05-03T23:18:58.742Z,101935.00
2023-05-03T23:21:34.053Z,101927.78
2023-05-03T23:24:04.372Z,101916.31
2023-05-03T23:26:34.558Z,101924.88
2023-05-03T23:29:05.157Z,101926.28
2023-05-03T23:31:36.137Z,101902.94
2023-05-03T23:34:08.627Z,101925.34
2023-05-03T23:36:41.286Z,101926.25
2023-05-03T23:39:20.515Z,101914.03
2023-05-03T23:41:50.660Z,101880.22
2023-05-03T23:44:21.272Z,101896.16
2023-05-03T23:46:51.540Z,101904.47
2023-05-03T23:49:21.983Z,101904.09
2023-05-03T23:51:54.606Z,101897.81
2023-05-03T23:54:25.594Z,101904.25
2023-05-03T23:56:55.720Z,101904.63
2023-05-03T23:59:29.553Z,101905.66
